sensor_id;sensor_type;location;lat;lon;timestamp;P1;durP1;ratioP1;P2;durP2;ratioP2
3873;SDS011;1952;50.872;6.692;2022-10-04T00:30:19;7.30;;;6.60;;
3873;SDS011;1952;50.872;6.692;2022-10-04T00:33:00;7.13;;;6.30;;
3873;SDS011;1952;50.872;6.692;2022-10-04T00:35:46;9.77;;;6.27;;
3873;SDS011;1952;50.872;6.692;2022-10-04T00:38:16;6.37;;;5.87;;
3873;SDS011;1952;50.872;6.692;2022-10-04T00:40:54;6.93;;;6.20;;
3873;SDS011;1952;50.872;6.692;2022-10-04T00:43:26;9.97;;;6.00;;
3873;SDS011;1952;50.872;6.692;2022-10-04T00:45:58;6.77;;;5.60;;
3873;SDS011;1952;50.872;6.692;2022-10-04T00:48:37;7.03;;;5.90;;
3873;SDS011;1952;50.872;6.692;2022-10-04T00:51:09;8.03;;;7.13;;
3873;SDS011;1952;50.872;6.692;2022-10-04T00:53:46;6.60;;;5.97;;
3873;SDS011;1952;50.872;6.692;2022-10-04T00:56:19;6.17;;;5.57;;
3873;SDS011;1952;50.872;6.692;2022-10-04T00:59:03;6.03;;;5.47;;
3873;SDS011;1952;50.872;6.692;2022-10-04T01:01:34;9.37;;;5.50;;
3873;SDS011;1952;50.872;6.692;2022-10-04T01:04:04;6.57;;;5.90;;
3873;SDS011;1952;50.872;6.692;2022-10-04T01:06:34;6.50;;;5.90;;
3873;SDS011;1952;50.872;6.692;2022-10-04T01:09:04;8.03;;;5.10;;
3873;SDS011;1952;50.872;6.692;2022-10-04T01:11:34;6.70;;;5.37;;
3873;SDS011;1952;50.872;6.692;2022-10-04T01:14:09;6.10;;;5.50;;
3873;SDS011;1952;50.872;6.692;2022-10-04T01:16:51;6.40;;;5.80;;
3873;SDS011;1952;50.872;6.692;2022-10-04T01:19:28;5.40;;;4.80;;
3873;SDS011;1952;50.872;6.692;2022-10-04T01:21:59;5.90;;;5.30;;
3873;SDS011;1952;50.872;6.692;2022-10-04T01:24:34;6.30;;;5.73;;
3873;SDS011;1952;50.872;6.692;2022-10-04T01:27:02;6.87;;;5.07;;
3873;SDS011;1952;50.872;6.692;2022-10-04T01:29:34;5.70;;;5.20;;
3873;SDS011;1952;50.872;6.692;2022-10-04T01:34:48;6.30;;;4.83;;
3873;SDS011;1952;50.872;6.692;2022-10-04T01:37:22;8.00;;;5.60;;
3873;SDS011;1952;50.872;6.692;2022-10-04T01:39:51;6.30;;;5.70;;
3873;SDS011;1952;50.872;6.692;2022-10-04T01:42:26;6.57;;;5.73;;
3873;SDS011;1952;50.872;6.692;2022-10-04T01:45:00;5.93;;;5.03;;
3873;SDS011;1952;50.872;6.692;2022-10-04T01:47:31;5.70;;;5.20;;
3873;SDS011;1952;50.872;6.692;2022-10-04T01:50:10;5.70;;;4.83;;
3873;SDS011;1952;50.872;6.692;2022-10-04T01:52:46;6.00;;;5.40;;
3873;SDS011;1952;50.872;6.692;2022-10-04T01:55:24;7.53;;;6.80;;
3873;SDS011;1952;50.872;6.692;2022-10-04T01:58:01;7.97;;;5.80;;
3873;SDS011;1952;50.872;6.692;2022-10-04T02:00:36;5.77;;;4.80;;
3873;SDS011;1952;50.872;6.692;2022-10-04T02:03:10;6.37;;;5.73;;
3873;SDS011;1952;50.872;6.692;2022-10-04T02:05:47;6.90;;;6.20;;
3873;SDS011;1952;50.872;6.692;2022-10-04T02:08:24;7.73;;;6.03;;
3873;SDS011;1952;50.872;6.692;2022-10-04T02:10:56;5.93;;;5.33;;
3873;SDS011;1952;50.872;6.692;2022-10-04T02:13:26;7.10;;;5.87;;
3873;SDS011;1952;50.872;6.692;2022-10-04T02:15:55;7.83;;;5.93;;
3873;SDS011;1952;50.872;6.692;2022-10-04T02:18:24;9.33;;;6.10;;
3873;SDS011;1952;50.872;6.692;2022-10-04T02:20:54;7.33;;;5.60;;
3873;SDS011;1952;50.872;6.692;2022-10-04T02:23:22;6.90;;;4.97;;
3873;SDS011;1952;50.872;6.692;2022-10-04T02:25:51;6.50;;;5.57;;
3873;SDS011;1952;50.872;6.692;2022-10-04T02:28:25;7.30;;;5.23;;
3873;SDS011;1952;50.872;6.692;2022-10-04T02:30:54;7.30;;;4.80;;
3873;SDS011;1952;50.872;6.692;2022-10-04T02:33:42;8.63;;;5.57;;
3873;SDS011;1952;50.872;6.692;2022-10-04T02:36:11;6.03;;;5.43;;
3873;SDS011;1952;50.872;6.692;2022-10-04T02:38:46;7.83;;;6.20;;
3873;SDS011;1952;50.872;6.692;2022-10-04T02:41:19;8.50;;;6.57;;
3873;SDS011;1952;50.872;6.692;2022-10-04T02:43:53;6.73;;;5.47;;
3873;SDS011;1952;50.872;6.692;2022-10-04T02:46:24;8.00;;;6.27;;
3873;SDS011;1952;50.872;6.692;2022-10-04T02:48:55;8.93;;;6.10;;
3873;SDS011;1952;50.872;6.692;2022-10-04T02:51:26;9.53;;;5.73;;
3873;SDS011;1952;50.872;6.692;2022-10-04T02:54:04;7.40;;;5.77;;
3873;SDS011;1952;50.872;6.692;2022-10-04T02:56:33;8.33;;;5.57;;
3873;SDS011;1952;50.872;6.692;2022-10-04T02:59:04;6.43;;;5.83;;
3873;SDS011;1952;50.872;6.692;2022-10-04T03:01:39;9.67;;;5.73;;
3873;SDS011;1952;50.872;6.692;2022-10-04T03:04:13;8.27;;;6.83;;
3873;SDS011;1952;50.872;6.692;2022-10-04T03:06:42;8.63;;;5.90;;
3873;SDS011;1952;50.872;6.692;2022-10-04T03:09:12;7.90;;;5.70;;
3873;SDS011;1952;50.872;6.692;2022-10-04T03:11:46;7.40;;;6.07;;
3873;SDS011;1952;50.872;6.692;2022-10-04T03:14:17;7.53;;;5.70;;
3873;SDS011;1952;50.872;6.692;2022-10-04T03:16:47;6.00;;;5.40;;
3873;SDS011;1952;50.872;6.692;2022-10-04T03:19:21;6.60;;;5.57;;
3873;SDS011;1952;50.872;6.692;2022-10-04T03:21:55;5.83;;;5.23;;
3873;SDS011;1952;50.872;6.692;2022-10-04T03:24:26;7.23;;;5.70;;
3873;SDS011;1952;50.872;6.692;2022-10-04T03:26:55;6.60;;;5.23;;
3873;SDS011;1952;50.872;6.692;2022-10-04T03:29:28;7.10;;;5.60;;
3873;SDS011;1952;50.872;6.692;2022-10-04T03:32:04;7.80;;;6.27;;
3873;SDS011;1952;50.872;6.692;2022-10-04T03:34:33;9.00;;;5.23;;
3873;SDS011;1952;50.872;6.692;2022-10-04T03:37:05;6.07;;;5.20;;
3873;SDS011;1952;50.872;6.692;2022-10-04T03:39:35;6.67;;;5.37;;
3873;SDS011;1952;50.872;6.692;2022-10-04T03:42:09;8.20;;;6.63;;
3873;SDS011;1952;50.872;6.692;2022-10-04T03:44:47;7.30;;;6.47;;
3873;SDS011;1952;50.872;6.692;2022-10-04T03:47:20;7.07;;;5.57;;
3873;SDS011;1952;50.872;6.692;2022-10-04T03:49:57;6.73;;;4.80;;
3873;SDS011;1952;50.872;6.692;2022-10-04T03:52:26;10.40;;;5.53;;
3873;SDS011;1952;50.872;6.692;2022-10-04T03:55:04;6.20;;;5.57;;
3873;SDS011;1952;50.872;6.692;2022-10-04T03:57:35;6.13;;;5.53;;
3873;SDS011;1952;50.872;6.692;2022-10-04T04:00:06;7.30;;;5.13;;
3873;SDS011;1952;50.872;6.692;2022-10-04T04:02:35;6.40;;;5.20;;
3873;SDS011;1952;50.872;6.692;2022-10-04T04:05:09;6.30;;;5.50;;
3873;SDS011;1952;50.872;6.692;2022-10-04T04:07:41;8.50;;;5.30;;
3873;SDS011;1952;50.872;6.692;2022-10-04T04:10:16;7.63;;;4.97;;
3873;SDS011;1952;50.872;6.692;2022-10-04T04:12:46;5.90;;;5.40;;
3873;SDS011;1952;50.872;6.692;2022-10-04T04:15:18;5.63;;;5.03;;
3873;SDS011;1952;50.872;6.692;2022-10-04T04:17:52;6.17;;;5.57;;
3873;SDS011;1952;50.872;6.692;2022-10-04T04:20:27;10.50;;;5.20;;
3873;SDS011;1952;50.872;6.692;2022-10-04T04:22:59;6.50;;;5.90;;
3873;SDS011;1952;50.872;6.692;2022-10-04T04:25:30;6.47;;;5.80;;
3873;SDS011;1952;50.872;6.692;2022-10-04T04:28:00;8.00;;;5.93;;
3873;SDS011;1952;50.872;6.692;2022-10-04T04:30:31;5.60;;;5.10;;
3873;SDS011;1952;50.872;6.692;2022-10-04T04:33:07;9.77;;;5.80;;
3873;SDS011;1952;50.872;6.692;2022-10-04T04:35:36;7.60;;;6.77;;
3873;SDS011;1952;50.872;6.692;2022-10-04T04:38:14;5.57;;;5.07;;
3873;SDS011;1952;50.872;6.692;2022-10-04T04:40:43;8.23;;;5.10;;
3873;SDS011;1952;50.872;6.692;2022-10-04T04:43:13;7.00;;;5.23;;
3873;SDS011;1952;50.872;6.692;2022-10-04T04:45:46;7.17;;;5.33;;
3873;SDS011;1952;50.872;6.692;2022-10-04T04:48:15;9.10;;;5.17;;
3873;SDS011;1952;50.872;6.692;2022-10-04T04:50:47;11.37;;;6.00;;
3873;SDS011;1952;50.872;6.692;2022-10-04T04:53:16;6.23;;;5.50;;
3873;SDS011;1952;50.872;6.692;2022-10-04T04:55:47;8.30;;;4.90;;
3873;SDS011;1952;50.872;6.692;2022-10-04T04:58:17;5.93;;;5.37;;
3873;SDS011;1952;50.872;6.692;2022-10-04T05:00:53;8.00;;;5.27;;
3873;SDS011;1952;50.872;6.692;2022-10-04T05:03:24;5.97;;;5.47;;
3873;SDS011;1952;50.872;6.692;2022-10-04T05:05:55;6.83;;;5.93;;
3873;SDS011;1952;50.872;6.692;2022-10-04T05:08:26;6.23;;;4.90;;
3873;SDS011;1952;50.872;6.692;2022-10-04T05:10:58;7.40;;;4.90;;
3873;SDS011;1952;50.872;6.692;2022-10-04T05:13:30;6.00;;;4.87;;
3873;SDS011;1952;50.872;6.692;2022-10-04T05:16:01;6.07;;;5.10;;
3873;SDS011;1952;50.872;6.692;2022-10-04T05:18:34;6.40;;;5.90;;
3873;SDS011;1952;50.872;6.692;2022-10-04T05:21:03;5.93;;;5.13;;
3873;SDS011;1952;50.872;6.692;2022-10-04T05:23:33;7.77;;;6.07;;
3873;SDS011;1952;50.872;6.692;2022-10-04T05:26:08;7.50;;;5.77;;
3873;SDS011;1952;50.872;6.692;2022-10-04T05:28:37;5.73;;;5.03;;
3873;SDS011;1952;50.872;6.692;2022-10-04T05:33:54;9.33;;;6.07;;
3873;SDS011;1952;50.872;6.692;2022-10-04T05:39:21;7.90;;;4.87;;
3873;SDS011;1952;50.872;6.692;2022-10-04T05:41:57;8.20;;;5.10;;
3873;SDS011;1952;50.872;6.692;2022-10-04T05:44:26;6.07;;;4.37;;
3873;SDS011;1952;50.872;6.692;2022-10-04T05:47:01;5.90;;;4.90;;
3873;SDS011;1952;50.872;6.692;2022-10-04T05:49:40;6.63;;;4.77;;
3873;SDS011;1952;50.872;6.692;2022-10-04T05:52:15;8.53;;;5.50;;
3873;SDS011;1952;50.872;6.692;2022-10-04T06:33:28;6.00;;;5.40;;
3873;SDS011;1952;50.872;6.692;2022-10-04T06:36:17;6.53;;;5.00;;
3873;SDS011;1952;50.872;6.692;2022-10-04T06:39:23;5.33;;;4.83;;
3873;SDS011;1952;50.872;6.692;2022-10-04T06:42:22;6.30;;;5.70;;
3873;SDS011;1952;50.872;6.692;2022-10-04T06:51:12;5.33;;;4.77;;
3873;SDS011;1952;50.872;6.692;2022-10-04T06:53:54;7.37;;;5.33;;
3873;SDS011;1952;50.872;6.692;2022-10-04T06:56:35;7.40;;;5.10;;
3873;SDS011;1952;50.872;6.692;2022-10-04T06:59:21;7.43;;;4.57;;
3873;SDS011;1952;50.872;6.692;2022-10-04T07:02:03;8.27;;;5.40;;
3873;SDS011;1952;50.872;6.692;2022-10-04T07:04:48;6.03;;;5.30;;
3873;SDS011;1952;50.872;6.692;2022-10-04T07:07:32;7.40;;;5.10;;
3873;SDS011;1952;50.872;6.692;2022-10-04T07:10:20;6.50;;;5.77;;
3873;SDS011;1952;50.872;6.692;2022-10-04T07:13:33;6.30;;;5.70;;
3873;SDS011;1952;50.872;6.692;2022-10-04T07:16:34;6.60;;;5.00;;
3873;SDS011;1952;50.872;6.692;2022-10-04T07:19:11;8.67;;;4.67;;
3873;SDS011;1952;50.872;6.692;2022-10-04T07:21:58;7.03;;;5.00;;
3873;SDS011;1952;50.872;6.692;2022-10-04T07:24:37;9.00;;;6.30;;
3873;SDS011;1952;50.872;6.692;2022-10-04T07:27:27;5.13;;;4.63;;
3873;SDS011;1952;50.872;6.692;2022-10-04T07:30:00;5.87;;;4.97;;
3873;SDS011;1952;50.872;6.692;2022-10-04T07:32:31;9.43;;;4.73;;
3873;SDS011;1952;50.872;6.692;2022-10-04T07:35:04;7.00;;;6.30;;
3873;SDS011;1952;50.872;6.692;2022-10-04T07:37:50;6.40;;;5.73;;
3873;SDS011;1952;50.872;6.692;2022-10-04T07:40:30;12.33;;;6.30;;
3873;SDS011;1952;50.872;6.692;2022-10-04T07:43:03;6.50;;;5.13;;
3873;SDS011;1952;50.872;6.692;2022-10-04T07:45:35;8.23;;;5.73;;
3873;SDS011;1952;50.872;6.692;2022-10-04T07:48:09;7.40;;;6.10;;
3873;SDS011;1952;50.872;6.692;2022-10-04T07:50:45;6.97;;;5.90;;
3873;SDS011;1952;50.872;6.692;2022-10-04T07:53:24;5.40;;;4.37;;
3873;SDS011;1952;50.872;6.692;2022-10-04T07:55:59;8.73;;;5.93;;
3873;SDS011;1952;50.872;6.692;2022-10-04T07:58:35;7.20;;;5.53;;
3873;SDS011;1952;50.872;6.692;2022-10-04T08:01:24;7.13;;;6.43;;
3873;SDS011;1952;50.872;6.692;2022-10-04T08:04:05;5.47;;;4.87;;
3873;SDS011;1952;50.872;6.692;2022-10-04T08:06:56;6.90;;;6.10;;
3873;SDS011;1952;50.872;6.692;2022-10-04T08:09:31;8.13;;;5.50;;
3873;SDS011;1952;50.872;6.692;2022-10-04T08:12:15;5.13;;;4.70;;
3873;SDS011;1952;50.872;6.692;2022-10-04T08:14:54;7.37;;;5.70;;
3873;SDS011;1952;50.872;6.692;2022-10-04T08:17:40;6.33;;;4.50;;
3873;SDS011;1952;50.872;6.692;2022-10-04T08:20:26;5.20;;;4.80;;
3873;SDS011;1952;50.872;6.692;2022-10-04T08:37:19;7.17;;;5.10;;
3873;SDS011;1952;50.872;6.692;2022-10-04T08:40:15;9.30;;;5.43;;
3873;SDS011;1952;50.872;6.692;2022-10-04T08:43:25;8.37;;;5.70;;
3873;SDS011;1952;50.872;6.692;2022-10-04T08:56:54;6.30;;;5.63;;
3873;SDS011;1952;50.872;6.692;2022-10-04T09:06:10;5.33;;;4.83;;
3873;SDS011;1952;50.872;6.692;2022-10-04T09:19:17;6.47;;;5.07;;
3873;SDS011;1952;50.872;6.692;2022-10-04T09:35:56;5.43;;;4.83;;
3873;SDS011;1952;50.872;6.692;2022-10-04T09:45:47;5.50;;;5.00;;
3873;SDS011;1952;50.872;6.692;2022-10-04T09:49:01;5.80;;;4.33;;
3873;SDS011;1952;50.872;6.692;2022-10-04T09:51:56;6.50;;;5.47;;
3873;SDS011;1952;50.872;6.692;2022-10-04T09:54:50;5.60;;;4.50;;
3873;SDS011;1952;50.872;6.692;2022-10-04T09:57:46;6.67;;;5.50;;
3873;SDS011;1952;50.872;6.692;2022-10-04T10:00:34;6.20;;;5.07;;
3873;SDS011;1952;50.872;6.692;2022-10-04T10:03:34;5.93;;;4.30;;
3873;SDS011;1952;50.872;6.692;2022-10-04T10:06:46;5.53;;;4.30;;
3873;SDS011;1952;50.872;6.692;2022-10-04T10:10:13;5.13;;;4.70;;
3873;SDS011;1952;50.872;6.692;2022-10-04T10:13:20;4.60;;;4.20;;
3873;SDS011;1952;50.872;6.692;2022-10-04T10:16:17;5.37;;;4.87;;
3873;SDS011;1952;50.872;6.692;2022-10-04T10:19:28;7.23;;;5.20;;
3873;SDS011;1952;50.872;6.692;2022-10-04T10:22:52;7.40;;;4.80;;
3873;SDS011;1952;50.872;6.692;2022-10-04T10:49:13;5.63;;;4.60;;
3873;SDS011;1952;50.872;6.692;2022-10-04T10:55:10;8.03;;;4.33;;
3873;SDS011;1952;50.872;6.692;2022-10-04T11:00:59;5.23;;;4.73;;
3873;SDS011;1952;50.872;6.692;2022-10-04T11:03:53;6.37;;;4.60;;
3873;SDS011;1952;50.872;6.692;2022-10-04T11:07:09;4.23;;;3.80;;
3873;SDS011;1952;50.872;6.692;2022-10-04T11:10:04;4.73;;;4.20;;
3873;SDS011;1952;50.872;6.692;2022-10-04T11:13:10;4.90;;;4.50;;
3873;SDS011;1952;50.872;6.692;2022-10-04T11:16:04;5.10;;;4.60;;
3873;SDS011;1952;50.872;6.692;2022-10-04T11:25:37;6.30;;;4.70;;
3873;SDS011;1952;50.872;6.692;2022-10-04T11:28:35;6.53;;;4.07;;
3873;SDS011;1952;50.872;6.692;2022-10-04T11:31:21;5.67;;;4.07;;
3873;SDS011;1952;50.872;6.692;2022-10-04T11:34:16;5.30;;;4.30;;
3873;SDS011;1952;50.872;6.692;2022-10-04T11:37:04;4.23;;;3.93;;
3873;SDS011;1952;50.872;6.692;2022-10-04T11:42:39;4.23;;;3.93;;
3873;SDS011;1952;50.872;6.692;2022-10-04T11:45:25;6.83;;;4.20;;
3873;SDS011;1952;50.872;6.692;2022-10-04T11:48:39;6.57;;;4.90;;
3873;SDS011;1952;50.872;6.692;2022-10-04T11:51:29;5.80;;;4.07;;
3873;SDS011;1952;50.872;6.692;2022-10-04T11:54:28;6.63;;;4.40;;
3873;SDS011;1952;50.872;6.692;2022-10-04T12:33:24;4.00;;;3.60;;
3873;SDS011;1952;50.872;6.692;2022-10-04T12:36:02;5.13;;;3.77;;
3873;SDS011;1952;50.872;6.692;2022-10-04T12:38:55;4.00;;;3.70;;
3873;SDS011;1952;50.872;6.692;2022-10-04T12:41:39;5.30;;;3.50;;
3873;SDS011;1952;50.872;6.692;2022-10-04T12:44:24;3.93;;;3.53;;
3873;SDS011;1952;50.872;6.692;2022-10-04T12:50:28;3.70;;;3.40;;
3873;SDS011;1952;50.872;6.692;2022-10-04T12:53:37;3.80;;;3.20;;
3873;SDS011;1952;50.872;6.692;2022-10-04T12:56:22;3.33;;;2.97;;
3873;SDS011;1952;50.872;6.692;2022-10-04T12:59:22;3.60;;;3.30;;
3873;SDS011;1952;50.872;6.692;2022-10-04T13:06:05;2.80;;;2.60;;
3873;SDS011;1952;50.872;6.692;2022-10-04T13:09:08;4.60;;;3.40;;
3873;SDS011;1952;50.872;6.692;2022-10-04T13:12:33;2.97;;;2.70;;
3873;SDS011;1952;50.872;6.692;2022-10-04T13:15:21;4.10;;;3.73;;
3873;SDS011;1952;50.872;6.692;2022-10-04T13:18:02;3.73;;;3.40;;
3873;SDS011;1952;50.872;6.692;2022-10-04T13:21:07;4.00;;;3.70;;
3873;SDS011;1952;50.872;6.692;2022-10-04T13:23:45;4.40;;;4.00;;
3873;SDS011;1952;50.872;6.692;2022-10-04T13:26:29;6.33;;;3.73;;
3873;SDS011;1952;50.872;6.692;2022-10-04T13:29:26;4.17;;;3.73;;
3873;SDS011;1952;50.872;6.692;2022-10-04T13:32:27;5.10;;;4.27;;
3873;SDS011;1952;50.872;6.692;2022-10-04T13:35:30;4.80;;;3.13;;
3873;SDS011;1952;50.872;6.692;2022-10-04T13:41:50;8.30;;;4.30;;
3873;SDS011;1952;50.872;6.692;2022-10-04T13:44:33;4.60;;;4.00;;
3873;SDS011;1952;50.872;6.692;2022-10-04T13:47:23;4.67;;;3.60;;
3873;SDS011;1952;50.872;6.692;2022-10-04T13:50:08;4.83;;;3.30;;
3873;SDS011;1952;50.872;6.692;2022-10-04T13:53:01;4.10;;;3.70;;
3873;SDS011;1952;50.872;6.692;2022-10-04T13:56:12;5.20;;;3.37;;
3873;SDS011;1952;50.872;6.692;2022-10-04T13:59:23;5.87;;;4.00;;
3873;SDS011;1952;50.872;6.692;2022-10-04T14:02:27;4.67;;;4.27;;
3873;SDS011;1952;50.872;6.692;2022-10-04T14:05:42;7.37;;;4.60;;
3873;SDS011;1952;50.872;6.692;2022-10-04T14:09:11;4.10;;;3.70;;
3873;SDS011;1952;50.872;6.692;2022-10-04T14:15:18;3.90;;;3.60;;
3873;SDS011;1952;50.872;6.692;2022-10-04T14:28:15;4.37;;;3.83;;
3873;SDS011;1952;50.872;6.692;2022-10-04T14:37:54;5.00;;;4.40;;
3873;SDS011;1952;50.872;6.692;2022-10-04T14:44:39;4.80;;;4.33;;
3873;SDS011;1952;50.872;6.692;2022-10-04T14:48:00;5.53;;;5.03;;
3873;SDS011;1952;50.872;6.692;2022-10-04T14:50:48;4.40;;;4.00;;
3873;SDS011;1952;50.872;6.692;2022-10-04T14:53:27;4.87;;;4.20;;
3873;SDS011;1952;50.872;6.692;2022-10-04T14:56:06;5.20;;;3.87;;
3873;SDS011;1952;50.872;6.692;2022-10-04T14:59:34;4.20;;;3.80;;
3873;SDS011;1952;50.872;6.692;2022-10-04T15:05:27;3.73;;;3.43;;
3873;SDS011;1952;50.872;6.692;2022-10-04T15:11:11;4.23;;;3.83;;
3873;SDS011;1952;50.872;6.692;2022-10-04T15:13:47;4.73;;;4.33;;
3873;SDS011;1952;50.872;6.692;2022-10-04T15:16:28;5.17;;;4.07;;
3873;SDS011;1952;50.872;6.692;2022-10-04T15:19:06;5.30;;;4.30;;
3873;SDS011;1952;50.872;6.692;2022-10-04T15:21:45;5.03;;;4.60;;
3873;SDS011;1952;50.872;6.692;2022-10-04T15:24:42;4.83;;;4.43;;
3873;SDS011;1952;50.872;6.692;2022-10-04T15:27:44;5.03;;;4.60;;
3873;SDS011;1952;50.872;6.692;2022-10-04T15:30:47;5.43;;;4.73;;
3873;SDS011;1952;50.872;6.692;2022-10-04T15:33:24;3.93;;;3.63;;
3873;SDS011;1952;50.872;6.692;2022-10-04T15:39:29;7.97;;;6.20;;
3873;SDS011;1952;50.872;6.692;2022-10-04T15:53:11;6.83;;;4.60;;
3873;SDS011;1952;50.872;6.692;2022-10-04T15:55:57;5.30;;;4.80;;
3873;SDS011;1952;50.872;6.692;2022-10-04T16:02:16;6.10;;;4.50;;
3873;SDS011;1952;50.872;6.692;2022-10-04T16:05:16;5.20;;;4.70;;
3873;SDS011;1952;50.872;6.692;2022-10-04T16:07:58;7.00;;;4.77;;
3873;SDS011;1952;50.872;6.692;2022-10-04T16:11:12;5.73;;;4.80;;
3873;SDS011;1952;50.872;6.692;2022-10-04T16:14:06;5.53;;;4.97;;
3873;SDS011;1952;50.872;6.692;2022-10-04T16:17:23;6.20;;;5.60;;
3873;SDS011;1952;50.872;6.692;2022-10-04T16:30:30;5.70;;;5.00;;
3873;SDS011;1952;50.872;6.692;2022-10-04T16:36:21;4.90;;;4.47;;
3873;SDS011;1952;50.872;6.692;2022-10-04T16:39:12;5.80;;;5.20;;
3873;SDS011;1952;50.872;6.692;2022-10-04T16:42:16;6.20;;;5.03;;
3873;SDS011;1952;50.872;6.692;2022-10-04T16:48:55;8.83;;;5.60;;
3873;SDS011;1952;50.872;6.692;2022-10-04T16:51:46;7.90;;;5.20;;
3873;SDS011;1952;50.872;6.692;2022-10-04T16:54:33;5.07;;;4.40;;
3873;SDS011;1952;50.872;6.692;2022-10-04T17:08:21;7.03;;;6.00;;
3873;SDS011;1952;50.872;6.692;2022-10-04T17:11:01;5.93;;;5.30;;
3873;SDS011;1952;50.872;6.692;2022-10-04T17:14:04;6.63;;;5.60;;
3873;SDS011;1952;50.872;6.692;2022-10-04T17:16:37;6.10;;;5.53;;
3873;SDS011;1952;50.872;6.692;2022-10-04T17:19:13;7.40;;;6.70;;
3873;SDS011;1952;50.872;6.692;2022-10-04T17:22:03;10.20;;;6.97;;
3873;SDS011;1952;50.872;6.692;2022-10-04T17:24:46;7.67;;;5.97;;
3873;SDS011;1952;50.872;6.692;2022-10-04T17:27:42;8.33;;;7.53;;
3873;SDS011;1952;50.872;6.692;2022-10-04T17:30:21;8.90;;;6.60;;
3873;SDS011;1952;50.872;6.692;2022-10-04T17:33:22;10.50;;;9.50;;
3873;SDS011;1952;50.872;6.692;2022-10-04T17:42:12;13.40;;;12.10;;
3873;SDS011;1952;50.872;6.692;2022-10-04T17:44:51;10.10;;;7.83;;
3873;SDS011;1952;50.872;6.692;2022-10-04T17:47:32;9.93;;;9.03;;
3873;SDS011;1952;50.872;6.692;2022-10-04T17:50:34;9.63;;;7.40;;
3873;SDS011;1952;50.872;6.692;2022-10-04T17:53:26;8.70;;;7.73;;
3873;SDS011;1952;50.872;6.692;2022-10-04T18:46:04;8.40;;;7.03;;
3873;SDS011;1952;50.872;6.692;2022-10-04T18:51:50;13.47;;;12.17;;
3873;SDS011;1952;50.872;6.692;2022-10-04T18:54:25;13.50;;;10.80;;
3873;SDS011;1952;50.872;6.692;2022-10-04T18:57:34;9.13;;;8.33;;
3873;SDS011;1952;50.872;6.692;2022-10-04T19:00:32;8.60;;;7.50;;
3873;SDS011;1952;50.872;6.692;2022-10-04T19:03:28;7.43;;;5.90;;
3873;SDS011;1952;50.872;6.692;2022-10-04T19:06:03;5.40;;;4.97;;
3873;SDS011;1952;50.872;6.692;2022-10-04T19:08:43;7.13;;;5.43;;
3873;SDS011;1952;50.872;6.692;2022-10-04T19:11:25;7.80;;;6.30;;
3873;SDS011;1952;50.872;6.692;2022-10-04T19:14:18;8.93;;;8.13;;
3873;SDS011;1952;50.872;6.692;2022-10-04T19:17:02;8.43;;;7.63;;
3873;SDS011;1952;50.872;6.692;2022-10-04T19:19:54;6.90;;;6.30;;
3873;SDS011;1952;50.872;6.692;2022-10-04T19:22:36;7.30;;;5.97;;
3873;SDS011;1952;50.872;6.692;2022-10-04T19:25:26;6.93;;;5.67;;
3873;SDS011;1952;50.872;6.692;2022-10-04T19:28:25;10.90;;;6.03;;
3873;SDS011;1952;50.872;6.692;2022-10-04T19:30:58;6.80;;;6.20;;
3873;SDS011;1952;50.872;6.692;2022-10-04T19:33:40;8.73;;;7.00;;
3873;SDS011;1952;50.872;6.692;2022-10-04T19:36:29;7.47;;;6.87;;
3873;SDS011;1952;50.872;6.692;2022-10-04T19:39:18;8.37;;;7.50;;
3873;SDS011;1952;50.872;6.692;2022-10-04T19:42:19;6.53;;;5.43;;
3873;SDS011;1952;50.872;6.692;2022-10-04T19:45:05;5.17;;;4.67;;
3873;SDS011;1952;50.872;6.692;2022-10-04T19:47:50;6.60;;;6.00;;
3873;SDS011;1952;50.872;6.692;2022-10-04T19:50:48;6.53;;;4.80;;
3873;SDS011;1952;50.872;6.692;2022-10-04T19:53:23;6.23;;;5.63;;
3873;SDS011;1952;50.872;6.692;2022-10-04T19:56:03;7.67;;;5.63;;
3873;SDS011;1952;50.872;6.692;2022-10-04T19:58:43;6.13;;;5.53;;
3873;SDS011;1952;50.872;6.692;2022-10-04T20:01:23;5.50;;;5.00;;
3873;SDS011;1952;50.872;6.692;2022-10-04T20:04:06;6.33;;;5.63;;
3873;SDS011;1952;50.872;6.692;2022-10-04T20:06:53;6.00;;;5.40;;
3873;SDS011;1952;50.872;6.692;2022-10-04T20:09:50;8.50;;;6.90;;
3873;SDS011;1952;50.872;6.692;2022-10-04T20:12:38;7.67;;;5.73;;
3873;SDS011;1952;50.872;6.692;2022-10-04T20:15:12;5.60;;;5.03;;
3873;SDS011;1952;50.872;6.692;2022-10-04T20:17:53;7.17;;;5.47;;
3873;SDS011;1952;50.872;6.692;2022-10-04T20:23:48;6.70;;;5.60;;
3873;SDS011;1952;50.872;6.692;2022-10-04T20:38:45;6.93;;;6.33;;
3873;SDS011;1952;50.872;6.692;2022-10-04T20:47:58;7.70;;;6.40;;
3873;SDS011;1952;50.872;6.692;2022-10-04T20:50:32;8.00;;;5.97;;
3873;SDS011;1952;50.872;6.692;2022-10-04T20:53:03;6.57;;;5.97;;
3873;SDS011;1952;50.872;6.692;2022-10-04T20:55:41;6.93;;;6.20;;
3873;SDS011;1952;50.872;6.692;2022-10-04T20:58:22;6.53;;;5.63;;
3873;SDS011;1952;50.872;6.692;2022-10-04T21:01:04;6.57;;;5.90;;
3873;SDS011;1952;50.872;6.692;2022-10-04T21:04:13;6.90;;;6.30;;
3873;SDS011;1952;50.872;6.692;2022-10-04T21:06:51;7.33;;;6.10;;
3873;SDS011;1952;50.872;6.692;2022-10-04T21:09:21;7.47;;;5.80;;
3873;SDS011;1952;50.872;6.692;2022-10-04T21:11:51;7.97;;;6.07;;
3873;SDS011;1952;50.872;6.692;2022-10-04T21:14:23;6.40;;;5.10;;
3873;SDS011;1952;50.872;6.692;2022-10-04T21:16:53;6.83;;;6.23;;
3873;SDS011;1952;50.872;6.692;2022-10-04T21:19:41;7.10;;;5.37;;
3873;SDS011;1952;50.872;6.692;2022-10-04T21:22:36;9.33;;;7.20;;
3873;SDS011;1952;50.872;6.692;2022-10-04T21:25:26;14.60;;;9.20;;
3873;SDS011;1952;50.872;6.692;2022-10-04T21:31:10;10.43;;;7.87;;
3873;SDS011;1952;50.872;6.692;2022-10-04T21:33:46;9.10;;;6.97;;
3873;SDS011;1952;50.872;6.692;2022-10-04T21:36:28;9.07;;;6.87;;
3873;SDS011;1952;50.872;6.692;2022-10-04T21:38:58;7.63;;;6.93;;
3873;SDS011;1952;50.872;6.692;2022-10-04T21:41:27;8.53;;;7.63;;
3873;SDS011;1952;50.872;6.692;2022-10-04T21:43:55;8.73;;;7.90;;
3873;SDS011;1952;50.872;6.692;2022-10-04T21:46:28;7.57;;;6.73;;
3873;SDS011;1952;50.872;6.692;2022-10-04T21:49:03;10.70;;;6.40;;
3873;SDS011;1952;50.872;6.692;2022-10-04T21:51:32;7.17;;;6.50;;
3873;SDS011;1952;50.872;6.692;2022-10-04T21:54:08;8.27;;;7.40;;
3873;SDS011;1952;50.872;6.692;2022-10-04T21:56:37;8.97;;;7.23;;
3873;SDS011;1952;50.872;6.692;2022-10-04T21:59:12;7.63;;;6.73;;
3873;SDS011;1952;50.872;6.692;2022-10-04T22:01:40;10.83;;;7.50;;
3873;SDS011;1952;50.872;6.692;2022-10-04T22:04:18;13.30;;;7.87;;
3873;SDS011;1952;50.872;6.692;2022-10-04T22:06:47;8.23;;;6.60;;
3873;SDS011;1952;50.872;6.692;2022-10-04T22:09:21;8.10;;;6.47;;
3873;SDS011;1952;50.872;6.692;2022-10-04T22:11:50;10.63;;;6.43;;
3873;SDS011;1952;50.872;6.692;2022-10-04T22:14:19;7.30;;;6.53;;
3873;SDS011;1952;50.872;6.692;2022-10-04T22:16:48;9.17;;;6.80;;
3873;SDS011;1952;50.872;6.692;2022-10-04T22:19:20;10.47;;;6.83;;
3873;SDS011;1952;50.872;6.692;2022-10-04T22:21:51;7.83;;;6.53;;
3873;SDS011;1952;50.872;6.692;2022-10-04T22:24:21;7.23;;;6.53;;
3873;SDS011;1952;50.872;6.692;2022-10-04T22:26:55;9.30;;;6.03;;
3873;SDS011;1952;50.872;6.692;2022-10-04T22:29:32;7.07;;;6.40;;
3873;SDS011;1952;50.872;6.692;2022-10-04T22:32:05;8.17;;;7.00;;
3873;SDS011;1952;50.872;6.692;2022-10-04T22:34:42;6.67;;;6.07;;
3873;SDS011;1952;50.872;6.692;2022-10-04T22:37:10;7.83;;;6.80;;
3873;SDS011;1952;50.872;6.692;2022-10-04T22:39:40;6.80;;;6.20;;
3873;SDS011;1952;50.872;6.692;2022-10-04T22:42:13;9.17;;;7.60;;
3873;SDS011;1952;50.872;6.692;2022-10-04T22:44:41;7.60;;;6.90;;
3873;SDS011;1952;50.872;6.692;2022-10-04T22:47:12;7.73;;;6.20;;
3873;SDS011;1952;50.872;6.692;2022-10-04T22:49:48;6.90;;;5.53;;
3873;SDS011;1952;50.872;6.692;2022-10-04T22:52:30;7.67;;;6.87;;
3873;SDS011;1952;50.872;6.692;2022-10-04T22:55:12;9.53;;;6.27;;
3873;SDS011;1952;50.872;6.692;2022-10-04T22:57:45;10.30;;;7.70;;
3873;SDS011;1952;50.872;6.692;2022-10-04T23:00:13;10.40;;;7.50;;
3873;SDS011;1952;50.872;6.692;2022-10-04T23:02:49;10.80;;;6.80;;
3873;SDS011;1952;50.872;6.692;2022-10-04T23:05:19;6.93;;;6.23;;
3873;SDS011;1952;50.872;6.692;2022-10-04T23:07:48;8.03;;;6.60;;
3873;SDS011;1952;50.872;6.692;2022-10-04T23:10:22;7.70;;;6.90;;
3873;SDS011;1952;50.872;6.692;2022-10-04T23:12:50;10.20;;;7.77;;
3873;SDS011;1952;50.872;6.692;2022-10-04T23:15:25;13.80;;;7.63;;
3873;SDS011;1952;50.872;6.692;2022-10-04T23:18:01;7.30;;;6.60;;